This is the latest recevied weather packets stored in our database for station/object K5MGY. If no packets are shown the sender has not sent any weather packets the latest 10 day(s).
| Time | Temp. | Humidity | Pressure | Rain* | Wind** | Luminosity | Snow |
|---|---|---|---|---|---|---|---|
| 1788624824 | 35° C | 47% | 1038.6 hPa | 0 mm | - | 557 W/m² | - |
| 1788624523 | 34.44° C | 49% | 1038.6 hPa | 0 mm | - | 545 W/m² | - |
| 1788624223 | 34.44° C | 49% | 1038.8 hPa | 0 mm | - | 533 W/m² | - |
| 1788623911 | 33.33° C | 52% | 1039 hPa | 0 mm | - | 519 W/m² | - |
| 1788623611 | 33.33° C | 54% | 1039 hPa | 0 mm | - | 501 W/m² | - |
| 1788623310 | 33.89° C | 52% | 1039.1 hPa | 0 mm | - | 495 W/m² | - |
| 1788623006 | 33.33° C | 54% | 1038.8 hPa | 0 mm | - | 481 W/m² | - |
| 1788622701 | 33.33° C | 53% | 1039.1 hPa | 0 mm | - | 464 W/m² | - |
| 1788622398 | 33.33° C | 54% | 1038.9 hPa | 0 mm | - | 453 W/m² | - |
| 1788622097 | 32.78° C | 55% | 1038.8 hPa | 0 mm | - | 439 W/m² | - |
| 1788621796 | 32.22° C | 56% | 1038.9 hPa | 0 mm | - | 424 W/m² | - |
| 1788621492 | 32.78° C | 55% | 1038.9 hPa | 0 mm | - | 410 W/m² | - |
| 1788621188 | 32.22° C | 55% | 1038.8 hPa | 0 mm | - | 397 W/m² | - |
| 1788620888 | 32.22° C | 55% | 1038.8 hPa | 0 mm | - | 379 W/m² | - |
| 1788620587 | 32.22° C | 56% | 1038.7 hPa | 0 mm | - | 364 W/m² | - |
| 1788620284 | 32.22° C | 56% | 1038.7 hPa | 0 mm | - | 348 W/m² | - |
| 1788619979 | 31.67° C | 57% | 1038.8 hPa | 0 mm | - | 334 W/m² | - |
| 1788619678 | 30.56° C | 60% | 1038.8 hPa | 0 mm | - | 318 W/m² | - |
| 1788619374 | 30.56° C | 61% | 1038.8 hPa | 0 mm | - | 301 W/m² | - |
| 1788619073 | 30.56° C | 61% | 1038.9 hPa | 0 mm | - | 284 W/m² | - |
| 1788618773 | 30.56° C | 62% | 1039 hPa | 0 mm | - | 270 W/m² | - |
| 1788618471 | 30.56° C | 62% | 1039 hPa | 0 mm | - | 253 W/m² | - |
| 1788618166 | 30.56° C | 63% | 1038.9 hPa | 0 mm | - | 238 W/m² | - |
| 1788617862 | 30° C | 64% | 1038.9 hPa | 0 mm | - | 214 W/m² | - |
| 1788617558 | 30° C | 67% | 1038.8 hPa | 0 mm | - | 207 W/m² | - |
* Rain latest hour (hover to see other rain measurements)
** Current wind speed in m/s (hover to see current wind gust speed)